Terminal Aerodrome Forecast
Issued by NWS

Home | Current Version | Previous Version | Text Only | Print | Product List | Glossary On
Versions: 1 2 3 4 5 6 7 8 9 10 11 12 13
000
FTUS44 KMOB 291154
TAFBFM
TAF
KBFM 291154Z 2912/3012 31003KT P6SM SKC
     FM291800 17006KT P6SM SCT050
      TEMPO 2918/2921 4SM -TSRA BKN050CB
     FM300100 VRB02KT P6SM SCT250=

USA.gov is the U.S. government's official web portal to all federal, state and local government web resources and services.